USTR 272100Z 34004MPS 9999 BKN018CB M01/M03 Q1021 R30/290060 R03/290060 TEMPO 1000 SHSN VV002
QNH:(hPa/inHg/mmHg)1021 / 30.15 / 766
QFE:(hPa/inHg/mmHg)1007 / 29.74 / 755
Temperature-1
Dew Point-3
Visibility1000
WeatherShowers Snow
Cloud CoverBKN (1800);
VV (200);
Transition Height700 m./2700 ft.
Transition LevelFL40
SQUAWK